Historyczne dane pomiarowe

Dodano dane terminowe – wersja testowa.

Dane z okresu 1951-2019

Wersja bazy: 1.34 [2019-03-16, lista zmian], aktualizacja planowana na 2019-04-15

Dane meteo z obszaru Polski uzyskane na podstawie danych udostępnionych przez Instytut Meteorologii i Gospodarki Wodnej – Państwowy Instytut Badawczy.

 

Wybierz Datę:    

       

TemperaturaWilgotnośćZachmurzenieWiatrCiśnienieWidzialnośćZjawiska
 Data    tng td wb rh cc ccl cl cm ch dir g1 g2 mslp ppp      
1994-07-28 00:00:00 14.9--- 13.6 14.192wxwxwx0wx--1019.9 979.2 0.0---wx
1994-07-28 01:00:00 14.3--- 13.3 13.794wxwx0wx--1020.1 979.3----wx
1994-07-28 02:00:00 14.0--- 13.3 13.696wxwx0wx--1019.7 978.9----wx
1994-07-28 03:00:00 13.5--- 11.8 12.589wxwx0wx--1019.8 978.9----wx
1994-07-28 04:00:00 12.8--- 11.8 12.293wxwx0wx--1019.6 978.7----wx
1994-07-28 05:00:00 14.1--- 13.1 13.594wxwx0wx--1019.4 978.6----wx
1994-07-28 06:00:00 17.0--- 14.9 15.787wxwx0wx--1018.8 978.5 0.0---wx
1994-07-28 07:00:00 21.9--- 15.3 17.766wxwx0wx--1017.9 978.3----wx
1994-07-28 08:00:00 26.4--- 14.6 18.948wxwx0wx--1016.9 977.9----wx
1994-07-28 09:00:00 31.2--- 10.5 18.628wxwx1wx--1016.1 977.7----wx
1994-07-28 10:00:00 31.6--- 9.2 18.225wxwx2wx--1015.8 977.5----wx
1994-07-28 11:00:00 32.2--- 8.4 18.123wxwxwx1wx--1015.5 977.3----wx
1994-07-28 12:00:00 32.5--- 8.9 18.423wxwxwx3wx--1015.1 976.9 0.0---wx
1994-07-28 13:00:00 33.0--- 8.4 18.422wxwxwxwx1wx--1014.7 976.6----wx
1994-07-28 14:00:00 33.1--- 9.6 18.924wxwxwxwx2wx--1014.4 976.3----wx
1994-07-28 15:00:00 32.9--- 9.3 18.723wxwxwxwx3wx--1014.0 975.9----wx
1994-07-28 16:00:00 32.3--- 8.8 18.323wxwxwxwx0wx--1013.8 975.6----wx
1994-07-28 17:00:00 31.3--- 9.4 18.226wxwxwx1wx--1013.7 975.4----wx
1994-07-28 18:00:00 29.2--- 10.9 18.132wxwx0wx--1013.9 975.3 0.0---wx
1994-07-28 19:00:00 24.2--- 12.4 17.048wxwx0wx--1014.8 975.6----wx
1994-07-28 20:00:00 20.7--- 13.1 16.162wxwx0wx--1015.7 976.0----wx
1994-07-28 21:00:00 18.3--- 13.9 15.675wxwx0wx--1016.3 976.2----wx
1994-07-28 22:00:00 17.0--- 14.0 15.283wxwx1wx--1017.1 976.8----wx
1994-07-28 23:00:00 15.9--- 12.1 13.778wxwxwx0wx--1017.1 976.7----wx

 

Źródłem pochodzenia danych jest Instytut Meteorologii i Gospodarki Wodnej – Państwowy Instytut Badawczy. Dane Instytutu Meteorologii i Gospodarki Wodnej – Państwowego Instytutu Badawczego zostały przetworzone.

Dane źródłowe można odnaleźć na stronie https://dane.imgw.pl